Flight Briefing for CPX418

Departure Arrival
Theodore Francis Green State Airport (KPVD)
Click to view FAA NOTAMS
Chicago/Rockford International Airport (KRFD)
Click to view FAA NOTAMS
Departure Time Arrival Time
N/A N/A
Aircraft Distance
B757-200SF 790nm
Departure METAR Arrival METAR
KPVD 260951Z 02011KT 10SM SCT047 00/M13 A3016 RMK AO2 SLP214 T00001128 KRFD 260954Z 00000KT 10SM CLR M04/M09 A3042 RMK AO2 SLP308 T10391094
Suggested Route
BAF HNK NUGNT DJB J60 JOT V171 RFD


View recent IFR Routes data
Notes



Charts and Procedures

Charts for KPVD
No chart available
Charts for KRFD
No chart available

Windy.com Weather Map